createdAt,value
2019-02-16T00:02:15.545Z,4.90
2019-02-16T00:07:18.782Z,4.70
2019-02-16T00:12:21.697Z,4.80
2019-02-16T00:17:24.878Z,4.53
2019-02-16T00:22:28.397Z,5.00
2019-02-16T00:27:30.964Z,4.83
2019-02-16T00:32:34.621Z,5.00
2019-02-16T00:37:37.568Z,3.90
2019-02-16T00:42:40.913Z,5.37
2019-02-16T00:47:44.240Z,4.97
2019-02-16T00:52:47.094Z,4.20
2019-02-16T00:57:49.618Z,4.90
2019-02-16T01:02:52.830Z,3.97
2019-02-16T01:07:56.019Z,4.70
2019-02-16T01:12:59.557Z,4.67
2019-02-16T01:18:02.457Z,4.30
2019-02-16T01:23:05.693Z,5.00
2019-02-16T01:28:09.289Z,3.97
2019-02-16T01:33:12.232Z,4.80
2019-02-16T01:38:15.613Z,4.60
2019-02-16T01:43:18.630Z,4.40
2019-02-16T01:48:21.814Z,5.23
2019-02-16T01:53:25.373Z,4.43
2019-02-16T01:58:28.665Z,4.03
2019-02-16T02:03:31.879Z,3.80
2019-02-16T02:08:35.423Z,4.37
2019-02-16T02:13:38.705Z,4.23
2019-02-16T02:18:42.385Z,5.33
2019-02-16T02:23:45.405Z,4.33
2019-02-16T02:28:48.343Z,5.30
2019-02-16T02:33:51.227Z,5.20
2019-02-16T02:38:54.793Z,4.80
2019-02-16T02:43:57.773Z,4.20
2019-02-16T02:49:00.985Z,4.80
2019-02-16T02:54:04.187Z,4.83
2019-02-16T02:59:07.088Z,4.30
2019-02-16T03:04:10.312Z,4.57
2019-02-16T03:09:13.319Z,4.00
2019-02-16T03:14:16.666Z,4.33
2019-02-16T03:19:20.266Z,4.30
2019-02-16T03:24:23.131Z,4.87
2019-02-16T03:30:05.776Z,3.80
2019-02-16T03:35:53.367Z,4.57
2019-02-16T03:40:56.652Z,4.77
2019-02-16T03:45:59.530Z,4.83
2019-02-16T03:51:02.809Z,4.10
2019-02-16T03:56:06.136Z,4.40
2019-02-16T04:01:09.364Z,4.40
2019-02-16T04:06:12.881Z,4.50
2019-02-16T04:11:15.425Z,5.33
2019-02-16T04:16:18.957Z,4.57
2019-02-16T04:21:21.916Z,4.30
2019-02-16T04:26:25.131Z,4.90
2019-02-16T04:31:28.232Z,4.87
2019-02-16T04:36:31.570Z,5.20
2019-02-16T04:41:34.844Z,4.73
2019-02-16T04:46:38.349Z,5.30
2019-02-16T04:51:41.209Z,4.40
2019-02-16T04:56:44.752Z,4.70
2019-02-16T05:01:47.658Z,4.93
2019-02-16T05:06:50.673Z,5.13
2019-02-16T05:11:54.177Z,4.37
2019-02-16T05:16:57.744Z,5.70
2019-02-16T05:22:00.904Z,4.57
2019-02-16T05:27:04.429Z,5.37
2019-02-16T05:32:07.953Z,4.93
2019-02-16T05:37:11.465Z,5.00
2019-02-16T05:42:14.779Z,4.87
2019-02-16T05:47:17.978Z,5.40
2019-02-16T05:52:21.490Z,4.97
2019-02-16T05:57:24.709Z,6.40
2019-02-16T06:02:28.218Z,5.40
2019-02-16T06:07:31.727Z,5.90
2019-02-16T06:12:34.997Z,5.80
2019-02-16T06:17:38.290Z,5.60
2019-02-16T06:22:41.173Z,6.23
2019-02-16T06:27:44.322Z,5.43
2019-02-16T06:32:47.563Z,5.27
2019-02-16T06:37:50.804Z,4.90
2019-02-16T06:42:53.960Z,5.03
2019-02-16T06:47:57.220Z,4.90
2019-02-16T06:53:00.447Z,5.93
2019-02-16T06:58:03.017Z,5.60
2019-02-16T07:03:05.920Z,6.40
2019-02-16T07:08:09.250Z,5.30
2019-02-16T07:13:12.543Z,5.20
2019-02-16T07:18:34.675Z,6.20
2019-02-16T07:23:38.371Z,5.30
2019-02-16T07:28:41.217Z,6.90
2019-02-16T07:33:44.119Z,7.43
2019-02-16T07:38:47.351Z,7.07
2019-02-16T07:44:08.356Z,6.60
2019-02-16T07:49:16.277Z,6.67
2019-02-16T07:54:42.747Z,6.30
2019-02-16T07:59:59.060Z,6.93
2019-02-16T08:05:13.935Z,7.70
2019-02-16T08:10:25.750Z,6.60
2019-02-16T08:15:57.227Z,6.90
2019-02-16T08:21:20.107Z,6.97
2019-02-16T08:26:33.849Z,7.40
2019-02-16T08:31:56.415Z,6.90
2019-02-16T08:37:19.293Z,6.60
2019-02-16T08:42:45.084Z,7.60
2019-02-16T08:48:16.799Z,7.13
2019-02-16T08:53:50.054Z,8.60
2019-02-16T08:59:13.291Z,8.33
2019-02-16T09:04:31.147Z,8.10
2019-02-16T09:09:52.323Z,8.53
2019-02-16T09:15:13.098Z,8.53
2019-02-16T09:20:53.994Z,9.97
2019-02-16T09:26:26.087Z,10.90
2019-02-16T09:31:44.852Z,10.83
2019-02-16T09:37:05.980Z,10.60
2019-02-16T09:42:28.600Z,11.73
2019-02-16T09:47:53.772Z,10.33
2019-02-16T09:53:06.825Z,11.43
2019-02-16T09:58:44.443Z,13.07
2019-02-16T10:04:02.159Z,12.80
2019-02-16T10:09:20.463Z,12.87
2019-02-16T10:14:41.781Z,13.90
2019-02-16T10:20:02.806Z,13.67
2019-02-16T10:25:14.722Z,14.00
2019-02-16T10:30:35.871Z,15.23
2019-02-16T10:35:56.777Z,18.40
2019-02-16T10:41:25.180Z,21.67
2019-02-16T10:46:51.115Z,24.67
2019-02-16T10:52:14.002Z,25.83
2019-02-16T10:57:48.328Z,19.83
2019-02-16T11:02:57.483Z,18.27
2019-02-16T11:08:29.580Z,20.13
2019-02-16T11:13:40.041Z,19.70
2019-02-16T11:19:14.385Z,22.27
2019-02-16T11:24:24.364Z,21.63
2019-02-16T11:29:38.318Z,22.53
2019-02-16T11:34:49.183Z,19.30
2019-02-16T11:40:00.934Z,23.30
2019-02-16T11:45:24.107Z,21.97
2019-02-16T11:50:52.370Z,19.10
2019-02-16T11:56:21.511Z,21.50
2019-02-16T12:01:50.175Z,25.90
2019-02-16T12:07:12.686Z,20.60
2019-02-16T12:12:53.398Z,20.50
2019-02-16T12:18:15.958Z,24.03
2019-02-16T12:23:32.257Z,22.23
2019-02-16T12:28:55.132Z,20.33
2019-02-16T12:34:26.524Z,22.03
2019-02-16T12:39:55.002Z,20.30
2019-02-16T12:45:21.495Z,19.40
2019-02-16T12:50:53.126Z,20.23
2019-02-16T12:56:14.575Z,18.60
2019-02-16T13:01:46.439Z,20.00
2019-02-16T13:07:14.752Z,17.40
2019-02-16T13:12:36.497Z,18.17
2019-02-16T13:18:02.133Z,19.90
2019-02-16T13:23:13.838Z,21.67
2019-02-16T13:28:36.722Z,20.90
2019-02-16T13:34:17.491Z,20.80
2019-02-16T13:39:33.311Z,21.70
2019-02-16T13:44:42.244Z,21.13
2019-02-16T13:50:10.766Z,21.83
2019-02-16T13:55:40.681Z,19.27
2019-02-16T14:00:56.501Z,20.03
2019-02-16T14:06:14.142Z,19.00
2019-02-16T14:11:26.976Z,20.67
2019-02-16T14:16:45.546Z,20.50
2019-02-16T14:21:49.144Z,21.37
2019-02-16T14:26:52.735Z,21.00
2019-02-16T14:31:56.376Z,23.13
2019-02-16T14:37:00.081Z,25.27
2019-02-16T14:42:03.060Z,24.20
2019-02-16T14:47:06.301Z,22.77
2019-02-16T14:52:09.259Z,22.27
2019-02-16T14:57:12.805Z,19.50
2019-02-16T15:02:16.125Z,19.33
2019-02-16T15:07:19.336Z,19.00
2019-02-16T15:12:22.297Z,18.97
2019-02-16T15:17:25.813Z,19.10
2019-02-16T15:22:29.070Z,19.40
2019-02-16T15:27:32.682Z,20.07
2019-02-16T15:32:35.590Z,19.07
2019-02-16T15:37:38.846Z,18.73
2019-02-16T15:42:42.425Z,20.63
2019-02-16T15:47:45.771Z,21.27
2019-02-16T15:52:49.095Z,22.93
2019-02-16T15:57:52.604Z,22.30
2019-02-16T16:02:55.932Z,22.80
2019-02-16T16:08:17.477Z,25.97
2019-02-16T16:13:54.890Z,25.23
2019-02-16T16:19:20.601Z,25.33
2019-02-16T16:24:32.543Z,26.50
2019-02-16T16:29:53.792Z,25.67
2019-02-16T16:35:15.512Z,24.67
2019-02-16T16:40:50.460Z,27.57
2019-02-16T16:46:18.502Z,25.43
2019-02-16T16:51:55.956Z,27.33
2019-02-16T16:57:09.718Z,27.27
2019-02-16T17:02:38.634Z,28.47
2019-02-16T17:07:59.759Z,27.87
2019-02-16T17:13:41.064Z,29.80
2019-02-16T17:19:18.784Z,27.80
2019-02-16T17:24:34.711Z,28.30
2019-02-16T17:30:15.072Z,30.27
2019-02-16T17:35:26.277Z,28.80
2019-02-16T17:40:45.452Z,31.53
2019-02-16T17:46:06.922Z,30.90
2019-02-16T17:51:24.986Z,29.00
2019-02-16T17:56:47.930Z,29.93
2019-02-16T18:02:00.461Z,31.43
2019-02-16T18:07:11.960Z,30.43
2019-02-16T18:12:34.831Z,30.33
2019-02-16T18:18:12.448Z,30.20
2019-02-16T18:23:21.808Z,30.97
2019-02-16T18:28:48.073Z,30.60
2019-02-16T18:34:10.531Z,30.80
2019-02-16T18:39:23.854Z,33.00
2019-02-16T18:44:49.703Z,34.13
2019-02-16T18:50:24.375Z,31.90
2019-02-16T18:55:48.971Z,32.70
2019-02-16T19:01:03.323Z,33.70
2019-02-16T19:06:17.926Z,34.00
2019-02-16T19:11:32.497Z,33.40
2019-02-16T19:17:06.860Z,33.13
2019-02-16T19:22:47.832Z,32.70
2019-02-16T19:28:12.959Z,32.73
2019-02-16T19:33:47.590Z,34.00
2019-02-16T19:39:09.342Z,33.27
2019-02-16T19:44:49.945Z,34.83
2019-02-16T19:50:06.649Z,34.60
2019-02-16T19:55:20.618Z,35.27
2019-02-16T20:00:46.355Z,35.97
2019-02-16T20:06:09.547Z,34.97
2019-02-16T20:11:19.708Z,37.53
2019-02-16T20:16:29.761Z,35.13
2019-02-16T20:22:01.445Z,34.27
2019-02-16T20:27:37.290Z,36.60
2019-02-16T20:32:51.094Z,36.30
2019-02-16T20:38:16.734Z,35.13
2019-02-16T20:43:39.701Z,32.90
2019-02-16T20:49:05.385Z,34.97
2019-02-16T20:54:43.669Z,32.50
2019-02-16T21:00:07.384Z,32.30
2019-02-16T21:05:35.933Z,28.40
2019-02-16T21:10:48.022Z,30.20
2019-02-16T21:16:11.423Z,28.27
2019-02-16T21:21:38.218Z,29.10
2019-02-16T21:27:01.201Z,29.07
2019-02-16T21:32:11.560Z,30.60
2019-02-16T21:37:34.458Z,26.97
2019-02-16T21:42:46.975Z,26.90
2019-02-16T21:48:09.971Z,27.30
2019-02-16T21:53:50.631Z,28.53
2019-02-16T21:59:19.247Z,27.93
2019-02-16T22:04:36.674Z,26.50
2019-02-16T22:09:56.574Z,32.70
2019-02-16T22:15:02.193Z,33.43
2019-02-16T22:20:06.030Z,31.67
2019-02-16T22:25:09.509Z,31.10
2019-02-16T22:30:12.545Z,34.93
2019-02-16T22:35:16.110Z,32.23
2019-02-16T22:40:19.314Z,34.63
2019-02-16T22:45:22.523Z,35.20
2019-02-16T22:50:26.471Z,31.83
2019-02-16T22:55:30.096Z,33.80
2019-02-16T23:00:43.000Z,33.80
2019-02-16T23:05:46.326Z,33.50
2019-02-16T23:10:49.555Z,35.80
2019-02-16T23:15:52.437Z,32.50
2019-02-16T23:20:55.339Z,32.60
2019-02-16T23:25:58.581Z,33.03
2019-02-16T23:31:01.790Z,33.70
2019-02-16T23:36:05.025Z,35.07
2019-02-16T23:41:08.609Z,34.40
2019-02-16T23:46:12.079Z,34.97
2019-02-16T23:51:15.622Z,33.90
2019-02-16T23:56:18.822Z,35.23
